createdAt,value
2019-04-05T00:00:14.754Z,4.10
2019-04-05T00:02:44.256Z,4.00
2019-04-05T00:05:14.344Z,3.90
2019-04-05T00:07:43.857Z,3.90
2019-04-05T00:10:14.547Z,3.80
2019-04-05T00:12:44.195Z,3.80
2019-04-05T00:15:15.959Z,3.80
2019-04-05T00:17:45.773Z,3.70
2019-04-05T00:20:17.020Z,3.70
2019-04-05T00:22:46.506Z,3.70
2019-04-05T00:25:16.127Z,3.70
2019-04-05T00:27:45.624Z,3.60
2019-04-05T00:30:15.592Z,3.60
2019-04-05T00:32:45.048Z,3.70
2019-04-05T00:35:14.721Z,3.70
2019-04-05T00:37:44.197Z,3.70
2019-04-05T00:40:14.253Z,3.80
2019-04-05T00:42:43.773Z,3.90
2019-04-05T00:45:32.577Z,3.90
2019-04-05T00:48:02.244Z,4.00
2019-04-05T00:50:31.766Z,4.00
2019-04-05T00:53:01.271Z,4.00
2019-04-05T00:55:30.774Z,4.00
2019-04-05T00:58:00.511Z,4.00
2019-04-05T01:00:49.327Z,4.00
2019-04-05T01:03:18.811Z,4.10
2019-04-05T01:05:48.679Z,4.10
2019-04-05T01:08:18.333Z,4.10
2019-04-05T01:10:47.977Z,4.10
2019-04-05T01:13:17.831Z,4.20
2019-04-05T01:15:47.330Z,4.20
2019-04-05T01:18:17.096Z,4.20
2019-04-05T01:20:50.029Z,4.20
2019-04-05T01:23:21.052Z,4.30
2019-04-05T01:26:10.299Z,4.20
2019-04-05T01:28:42.903Z,4.10
2019-04-05T01:31:31.665Z,3.90
2019-04-05T01:34:01.217Z,3.90
2019-04-05T01:36:30.704Z,3.80
2019-04-05T01:39:00.145Z,3.70
2019-04-05T01:41:30.256Z,3.60
2019-04-05T01:43:59.867Z,3.70
2019-04-05T01:46:29.419Z,3.80
2019-04-05T01:48:59.338Z,3.80
2019-04-05T01:51:28.824Z,3.90
2019-04-05T01:54:17.615Z,4.10
2019-04-05T01:56:47.098Z,4.20
2019-04-05T01:59:16.660Z,4.20
2019-04-05T02:01:46.329Z,4.10
2019-04-05T02:04:15.811Z,4.10
2019-04-05T02:06:45.601Z,4.10
2019-04-05T02:09:16.830Z,4.10
2019-04-05T02:11:47.907Z,4.00
2019-04-05T02:14:19.232Z,4.10
2019-04-05T02:16:49.026Z,4.00
2019-04-05T02:19:20.278Z,4.00
2019-04-05T02:21:49.790Z,4.00
2019-04-05T02:24:19.262Z,4.00
2019-04-05T02:26:49.059Z,4.00
2019-04-05T02:29:18.541Z,4.00
2019-04-05T02:31:49.885Z,4.00
2019-04-05T02:34:38.662Z,4.00
2019-04-05T02:37:09.935Z,4.00
2019-04-05T02:39:39.582Z,4.10
2019-04-05T02:42:12.543Z,4.10
2019-04-05T02:44:46.289Z,4.10
2019-04-05T02:47:16.487Z,4.10
2019-04-05T02:49:47.977Z,4.10
2019-04-05T02:52:21.491Z,4.10
2019-04-05T02:54:53.274Z,4.10
2019-04-05T02:57:23.570Z,4.10
2019-04-05T02:59:54.411Z,4.10
2019-04-05T03:02:24.698Z,4.10
2019-04-05T03:04:54.998Z,4.10
2019-04-05T03:07:27.036Z,4.10
2019-04-05T03:09:59.131Z,4.20
2019-04-05T03:12:29.799Z,3.90
2019-04-05T03:15:03.417Z,3.90
2019-04-05T03:17:36.481Z,4.00
2019-04-05T03:20:08.379Z,4.10
2019-04-05T03:22:38.657Z,4.10
2019-04-05T03:25:08.859Z,4.20
2019-04-05T03:27:39.954Z,4.20
2019-04-05T03:30:09.944Z,4.20
2019-04-05T03:32:49.197Z,4.30
2019-04-05T03:35:19.212Z,4.30
2019-04-05T03:37:48.863Z,4.30
2019-04-05T03:40:18.591Z,4.20
2019-04-05T03:42:48.502Z,4.20
2019-04-05T03:45:18.576Z,4.30
2019-04-05T03:47:48.617Z,4.30
2019-04-05T03:50:19.526Z,4.40
2019-04-05T03:52:49.171Z,4.40
2019-04-05T03:55:19.126Z,4.50
2019-04-05T03:57:49.141Z,4.50
2019-04-05T04:00:18.991Z,4.40
2019-04-05T04:02:48.947Z,4.40
2019-04-05T04:05:18.865Z,4.30
2019-04-05T04:07:48.509Z,4.30
2019-04-05T04:10:19.844Z,4.30
2019-04-05T04:12:50.293Z,4.30
2019-04-05T04:15:21.606Z,4.30
2019-04-05T04:17:51.720Z,4.30
2019-04-05T04:20:26.651Z,4.30
2019-04-05T04:22:56.274Z,4.20
2019-04-05T04:25:25.995Z,4.20
2019-04-05T04:27:55.762Z,4.20
2019-04-05T04:30:27.582Z,4.30
2019-04-05T04:32:57.676Z,4.30
2019-04-05T04:35:30.835Z,4.40
2019-04-05T04:38:01.180Z,4.40
2019-04-05T04:40:32.326Z,4.40
2019-04-05T04:43:03.245Z,4.30
2019-04-05T04:45:34.241Z,4.30
2019-04-05T04:48:04.509Z,4.40
2019-04-05T04:50:35.412Z,4.40
2019-04-05T04:53:05.468Z,4.40
2019-04-05T04:55:36.269Z,4.50
2019-04-05T04:58:06.609Z,4.50
2019-04-05T05:00:36.927Z,4.40
2019-04-05T05:03:06.763Z,4.40
2019-04-05T05:05:36.733Z,4.50
2019-04-05T05:08:06.924Z,4.40
2019-04-05T05:10:36.918Z,4.40
2019-04-05T05:13:06.836Z,4.40
2019-04-05T05:15:36.931Z,4.40
2019-04-05T05:18:06.726Z,4.30
2019-04-05T05:20:36.947Z,4.30
2019-04-05T05:23:06.716Z,4.20
2019-04-05T05:25:36.402Z,4.20
2019-04-05T05:28:06.608Z,4.20
2019-04-05T05:30:36.505Z,4.20
2019-04-05T05:33:06.421Z,4.30
2019-04-05T05:35:36.306Z,4.40
2019-04-05T05:38:25.129Z,4.50
2019-04-05T05:40:54.923Z,4.60
2019-04-05T05:43:24.547Z,4.60
2019-04-05T05:45:54.052Z,4.60
2019-04-05T05:48:23.921Z,4.50
2019-04-05T05:50:54.925Z,4.50
2019-04-05T05:53:24.742Z,4.40
2019-04-05T05:55:54.224Z,4.40
2019-04-05T05:58:25.878Z,4.50
2019-04-05T06:00:54.893Z,4.60
2019-04-05T06:03:43.714Z,4.60
2019-04-05T06:06:13.195Z,4.60
2019-04-05T06:08:42.668Z,4.70
2019-04-05T06:11:12.181Z,4.70
2019-04-05T06:13:41.687Z,4.80
2019-04-05T06:16:11.245Z,4.80
2019-04-05T06:18:40.743Z,4.90
2019-04-05T06:21:10.471Z,4.90
2019-04-05T06:23:39.932Z,5.00
2019-04-05T06:26:09.484Z,5.00
2019-04-05T06:28:39.282Z,5.20
2019-04-05T06:31:10.365Z,5.20
2019-04-05T06:33:40.229Z,5.20
2019-04-05T06:36:09.717Z,5.30
2019-04-05T06:38:39.215Z,5.30
2019-04-05T06:41:09.093Z,5.40
2019-04-05T06:43:38.577Z,5.40
2019-04-05T06:46:08.082Z,5.20
2019-04-05T06:48:37.727Z,5.40
2019-04-05T06:51:07.352Z,5.30
2019-04-05T06:53:36.803Z,5.50
2019-04-05T06:56:06.446Z,5.80
2019-04-05T06:58:35.915Z,5.70
2019-04-05T07:01:05.529Z,5.90
2019-04-05T07:03:35.067Z,6.20
2019-04-05T07:06:04.588Z,6.20
2019-04-05T07:08:34.055Z,6.30
2019-04-05T07:11:03.564Z,6.40
2019-04-05T07:13:33.152Z,6.20
2019-04-05T07:16:02.653Z,6.40
2019-04-05T07:18:36.014Z,6.50
2019-04-05T07:21:03.428Z,6.60
2019-04-05T07:23:32.906Z,6.70
2019-04-05T07:26:02.474Z,6.80
2019-04-05T07:28:31.962Z,6.80
2019-04-05T07:31:01.429Z,6.90
2019-04-05T07:33:31.242Z,7.00
2019-04-05T07:36:04.355Z,7.00
2019-04-05T07:38:33.862Z,7.10
2019-04-05T07:41:03.394Z,7.10
2019-04-05T07:43:32.893Z,7.00
2019-04-05T07:46:02.784Z,7.20
2019-04-05T07:48:43.788Z,7.40
2019-04-05T07:51:03.551Z,7.60
2019-04-05T07:53:33.036Z,7.60
2019-04-05T07:56:03.237Z,7.80
2019-04-05T07:58:32.716Z,8.00
2019-04-05T08:01:05.502Z,8.20
2019-04-05T08:03:35.029Z,8.20
2019-04-05T08:06:04.941Z,8.10
2019-04-05T08:08:38.988Z,8.40
2019-04-05T08:11:08.807Z,8.40
2019-04-05T08:13:41.796Z,8.70
2019-04-05T08:16:11.356Z,8.90
2019-04-05T08:18:41.087Z,9.10
2019-04-05T08:21:10.715Z,9.40
2019-04-05T08:23:40.261Z,9.60
2019-04-05T08:26:09.811Z,9.60
2019-04-05T08:28:39.291Z,9.70
2019-04-05T08:31:10.860Z,9.30
2019-04-05T08:33:40.050Z,9.00
2019-04-05T08:36:11.126Z,9.30
2019-04-05T08:38:44.738Z,9.90
2019-04-05T08:41:14.300Z,9.00
2019-04-05T08:43:43.819Z,9.50
2019-04-05T08:46:13.409Z,9.70
2019-04-05T08:48:42.917Z,10.50
2019-04-05T08:51:12.422Z,11.30
2019-04-05T08:53:41.925Z,11.20
2019-04-05T08:56:11.451Z,11.70
2019-04-05T08:58:40.957Z,11.90
2019-04-05T09:01:10.479Z,12.00
2019-04-05T09:03:59.314Z,12.10
2019-04-05T09:06:28.830Z,12.70
2019-04-05T09:08:58.295Z,14.30
2019-04-05T09:11:27.787Z,15.40
2019-04-05T09:13:57.296Z,16.30
2019-04-05T09:16:26.863Z,17.20
2019-04-05T09:18:56.365Z,17.50
2019-04-05T09:21:25.836Z,16.70
2019-04-05T09:23:55.338Z,16.40
2019-04-05T09:26:25.167Z,16.40
2019-04-05T09:28:55.331Z,15.40
2019-04-05T09:31:24.859Z,15.00
2019-04-05T09:33:54.409Z,13.50
2019-04-05T09:36:23.886Z,12.60
2019-04-05T09:38:53.390Z,11.60
2019-04-05T09:41:22.900Z,11.50
2019-04-05T09:43:52.392Z,10.90
2019-04-05T09:46:21.867Z,10.00
2019-04-05T09:48:51.372Z,9.80
2019-04-05T09:51:20.832Z,9.00
2019-04-05T09:53:50.402Z,8.80
2019-04-05T09:56:19.924Z,9.00
2019-04-05T09:58:49.423Z,8.60
2019-04-05T10:01:18.959Z,8.60
2019-04-05T10:03:48.464Z,9.00
2019-04-05T10:06:17.950Z,8.80
2019-04-05T10:08:47.449Z,8.40
2019-04-05T10:11:16.917Z,8.30
2019-04-05T10:13:46.391Z,8.70
2019-04-05T10:16:15.896Z,9.00
2019-04-05T10:18:45.579Z,9.30
2019-04-05T10:21:14.949Z,9.60
2019-04-05T10:23:44.409Z,9.50
2019-04-05T10:26:13.903Z,9.50
2019-04-05T10:28:43.388Z,9.20
2019-04-05T10:31:12.927Z,9.30
2019-04-05T10:33:42.451Z,9.30
2019-04-05T10:36:11.944Z,9.30
2019-04-05T10:39:00.746Z,9.10
2019-04-05T10:41:30.220Z,8.90
2019-04-05T10:43:59.723Z,9.00
2019-04-05T10:46:29.333Z,8.90
2019-04-05T10:48:58.858Z,9.10
2019-04-05T10:51:29.817Z,9.20
2019-04-05T10:54:18.726Z,9.20
2019-04-05T10:56:48.213Z,9.00
2019-04-05T10:59:17.691Z,9.30
2019-04-05T11:01:47.198Z,9.50
2019-04-05T11:04:16.848Z,9.60
2019-04-05T11:06:47.573Z,9.60
2019-04-05T11:09:17.066Z,9.50
2019-04-05T11:11:46.550Z,9.80
2019-04-05T11:14:16.037Z,9.60
2019-04-05T11:16:57.894Z,9.70
2019-04-05T11:19:16.723Z,9.80
2019-04-05T11:21:47.904Z,9.60
2019-04-05T11:24:17.432Z,9.70
2019-04-05T11:26:46.886Z,9.60
2019-04-05T11:29:16.352Z,9.20
2019-04-05T11:31:56.382Z,9.20
2019-04-05T11:34:17.934Z,9.40
2019-04-05T11:36:47.873Z,9.40
2019-04-05T11:39:17.660Z,9.30
2019-04-05T11:41:50.124Z,9.20
2019-04-05T11:44:19.894Z,9.00
2019-04-05T11:47:08.727Z,9.10
2019-04-05T11:49:39.827Z,9.10
2019-04-05T11:52:10.819Z,9.60
2019-04-05T11:54:40.384Z,9.80
2019-04-05T11:57:09.935Z,10.00
2019-04-05T11:59:39.690Z,10.00
2019-04-05T12:02:10.805Z,9.70
2019-04-05T12:04:42.694Z,9.40
2019-04-05T12:07:11.492Z,9.20
2019-04-05T12:09:41.030Z,9.20
2019-04-05T12:12:10.488Z,9.40
2019-04-05T12:14:39.956Z,9.40
2019-04-05T12:17:09.804Z,9.50
2019-04-05T12:19:39.402Z,9.60
2019-04-05T12:22:09.353Z,9.40
2019-04-05T12:24:38.964Z,9.60
2019-04-05T12:27:08.522Z,9.70
2019-04-05T12:29:37.987Z,9.50
2019-04-05T12:32:07.555Z,9.40
2019-04-05T12:34:37.009Z,9.10
2019-04-05T12:37:06.568Z,8.90
2019-04-05T12:39:37.184Z,8.90
2019-04-05T12:42:06.915Z,8.80
2019-04-05T12:44:36.384Z,8.70
2019-04-05T12:47:06.373Z,8.70
2019-04-05T12:49:35.858Z,8.60
2019-04-05T12:52:05.554Z,8.60
2019-04-05T12:54:35.056Z,8.60
2019-04-05T12:57:04.606Z,8.60
2019-04-05T12:59:34.103Z,8.60
2019-04-05T13:02:03.575Z,8.60
2019-04-05T13:04:33.090Z,8.90
2019-04-05T13:07:02.571Z,8.90
2019-04-05T13:09:32.463Z,9.00
2019-04-05T13:12:02.260Z,9.20
2019-04-05T13:14:31.717Z,8.60
2019-04-05T13:17:02.628Z,8.70
2019-04-05T13:19:32.292Z,8.50
2019-04-05T13:22:22.819Z,8.60
2019-04-05T13:24:52.326Z,8.70
2019-04-05T13:27:21.797Z,8.60
2019-04-05T13:29:51.322Z,8.50
2019-04-05T13:32:22.347Z,8.40
2019-04-05T13:34:53.554Z,8.40
2019-04-05T13:37:23.336Z,8.40
2019-04-05T13:39:52.827Z,8.30
2019-04-05T13:42:22.311Z,8.50
2019-04-05T13:44:51.832Z,8.50
2019-04-05T13:47:21.321Z,8.30
2019-04-05T13:49:50.966Z,8.20
2019-04-05T13:52:20.568Z,8.20
2019-04-05T13:54:50.049Z,8.20
2019-04-05T13:57:19.545Z,8.10
2019-04-05T13:59:49.444Z,8.10
2019-04-05T14:02:21.184Z,8.10
2019-04-05T14:04:53.601Z,8.10
2019-04-05T14:07:23.636Z,8.10
2019-04-05T14:09:52.717Z,8.10
2019-04-05T14:12:22.175Z,8.20
2019-04-05T14:14:51.902Z,8.10
2019-04-05T14:17:21.489Z,8.10
2019-04-05T14:19:50.935Z,8.30
2019-04-05T14:22:22.414Z,8.20
2019-04-05T14:24:52.936Z,8.30
2019-04-05T14:27:23.168Z,8.10
2019-04-05T14:29:52.912Z,7.90
2019-04-05T14:32:41.715Z,7.80
2019-04-05T14:35:11.819Z,7.80
2019-04-05T14:37:41.339Z,8.00
2019-04-05T14:40:14.020Z,8.20
2019-04-05T14:42:45.015Z,8.30
2019-04-05T14:45:14.872Z,8.30
2019-04-05T14:48:03.703Z,8.00
2019-04-05T14:50:34.670Z,7.90
2019-04-05T14:53:23.514Z,7.70
2019-04-05T14:55:52.995Z,7.60
2019-04-05T14:58:22.549Z,7.70
2019-04-05T15:00:52.081Z,7.70
2019-04-05T15:03:21.573Z,7.60
2019-04-05T15:05:51.115Z,7.60
2019-04-05T15:08:21.219Z,7.60
2019-04-05T15:10:51.483Z,7.70
2019-04-05T15:13:21.107Z,7.90
2019-04-05T15:16:11.656Z,7.80
2019-04-05T15:19:03.013Z,7.50
2019-04-05T15:21:34.677Z,7.60
2019-04-05T15:24:23.007Z,7.60
2019-04-05T15:26:52.735Z,7.60
2019-04-05T15:29:25.841Z,7.70
2019-04-05T15:31:55.500Z,7.60
2019-04-05T15:34:28.004Z,7.40
2019-04-05T15:36:55.832Z,7.40
2019-04-05T15:39:25.292Z,7.50
2019-04-05T15:41:54.822Z,7.40
2019-04-05T15:44:43.604Z,7.30
2019-04-05T15:47:13.750Z,7.20
2019-04-05T15:49:43.481Z,7.20
2019-04-05T15:52:18.647Z,7.30
2019-04-05T15:54:44.188Z,7.40
2019-04-05T15:57:13.758Z,7.50
2019-04-05T15:59:45.045Z,7.30
2019-04-05T16:02:15.001Z,7.30
2019-04-05T16:04:44.581Z,7.30
2019-04-05T16:07:14.075Z,7.30
2019-04-05T16:09:43.590Z,7.40
2019-04-05T16:12:13.060Z,7.40
2019-04-05T16:14:42.618Z,7.50
2019-04-05T16:17:12.590Z,7.50
2019-04-05T16:19:42.299Z,7.40
2019-04-05T16:22:11.806Z,7.40
2019-04-05T16:24:41.314Z,7.30
2019-04-05T16:27:10.801Z,7.30
2019-04-05T16:29:40.252Z,7.30
2019-04-05T16:32:09.746Z,7.30
2019-04-05T16:34:39.231Z,7.40
2019-04-05T16:37:08.720Z,7.40
2019-04-05T16:39:38.204Z,7.50
2019-04-05T16:42:12.027Z,7.60
2019-04-05T16:44:41.484Z,7.50
2019-04-05T16:47:30.350Z,7.30
2019-04-05T16:49:59.853Z,7.20
2019-04-05T16:52:29.346Z,7.30
2019-04-05T16:54:58.825Z,7.30
2019-04-05T16:57:28.331Z,7.30
2019-04-05T16:59:58.863Z,7.10
2019-04-05T17:02:28.468Z,7.10
2019-04-05T17:04:58.026Z,7.10
2019-04-05T17:07:27.479Z,7.10
2019-04-05T17:09:57.225Z,7.00
2019-04-05T17:12:45.981Z,7.10
2019-04-05T17:15:16.373Z,7.20
2019-04-05T17:17:45.874Z,7.30
2019-04-05T17:20:15.870Z,7.50
2019-04-05T17:22:57.386Z,7.40
2019-04-05T17:25:16.723Z,7.50
2019-04-05T17:27:46.178Z,7.50
2019-04-05T17:30:36.398Z,7.60
2019-04-05T17:33:05.949Z,7.60
2019-04-05T17:35:36.615Z,7.70
2019-04-05T17:38:06.084Z,7.70
2019-04-05T17:40:35.584Z,7.70
2019-04-05T17:43:06.579Z,7.50
2019-04-05T17:45:36.110Z,7.40
2019-04-05T17:48:05.764Z,7.30
2019-04-05T17:50:36.028Z,7.20
2019-04-05T17:53:12.604Z,7.20
2019-04-05T17:55:37.433Z,7.10
2019-04-05T17:58:28.367Z,7.10
2019-04-05T18:00:58.127Z,7.10
2019-04-05T18:03:27.582Z,7.00
2019-04-05T18:05:57.402Z,7.00
2019-04-05T18:08:46.161Z,7.10
2019-04-05T18:11:15.678Z,7.20
2019-04-05T18:13:45.150Z,7.20
2019-04-05T18:16:14.659Z,7.20
2019-04-05T18:18:44.165Z,7.30
2019-04-05T18:21:13.645Z,7.30
2019-04-05T18:23:43.129Z,7.40
2019-04-05T18:26:12.783Z,7.40
2019-04-05T18:28:42.236Z,7.30
2019-04-05T18:31:11.739Z,7.20
2019-04-05T18:33:41.234Z,7.00
2019-04-05T18:36:10.721Z,6.90
2019-04-05T18:38:40.182Z,6.90
2019-04-05T18:41:10.012Z,6.90
2019-04-05T18:43:39.528Z,6.90
2019-04-05T18:46:09.069Z,6.80
2019-04-05T18:48:38.858Z,6.80
2019-04-05T18:51:08.346Z,6.90
2019-04-05T18:53:38.324Z,7.00
2019-04-05T18:56:07.920Z,7.10
2019-04-05T18:58:37.422Z,7.10
2019-04-05T19:01:07.286Z,7.10
2019-04-05T19:03:37.012Z,7.20
2019-04-05T19:06:07.977Z,7.30
2019-04-05T19:08:39.732Z,7.30
2019-04-05T19:11:08.685Z,7.30
2019-04-05T19:13:38.171Z,7.30
2019-04-05T19:16:07.868Z,7.10
2019-04-05T19:18:37.823Z,7.20
2019-04-05T19:21:07.465Z,7.10
2019-04-05T19:23:49.915Z,7.20
2019-04-05T19:26:08.421Z,7.20
2019-04-05T19:28:37.879Z,7.20
2019-04-05T19:49:05.647Z,7.20
2019-04-05T19:51:35.129Z,7.20
2019-04-05T19:54:05.068Z,7.30
2019-04-05T19:56:34.535Z,7.30
2019-04-05T19:59:04.014Z,7.40
2019-04-05T20:01:52.850Z,7.40
2019-04-05T20:04:22.324Z,7.40
2019-04-05T20:06:58.341Z,7.40
2019-04-05T20:09:23.295Z,7.30
2019-04-05T20:11:52.758Z,7.20
2019-04-05T20:14:22.220Z,7.30
2019-04-05T20:16:51.706Z,7.30
2019-04-05T20:19:21.210Z,7.40
2019-04-05T20:21:50.767Z,7.30
2019-04-05T20:24:20.547Z,7.30
2019-04-05T20:26:50.031Z,7.30
2019-04-05T20:29:21.635Z,7.20
2019-04-05T20:32:10.037Z,7.10
2019-04-05T20:34:39.540Z,7.00
2019-04-05T20:37:09.001Z,7.00
2019-04-05T20:39:38.518Z,7.20
2019-04-05T20:42:08.180Z,7.20
2019-04-05T20:44:37.626Z,7.20
2019-04-05T20:47:07.105Z,7.10
2019-04-05T20:49:36.614Z,7.10
2019-04-05T20:52:06.241Z,7.10
2019-04-05T20:54:35.719Z,7.00
2019-04-05T20:57:05.211Z,7.10
2019-04-05T20:59:34.690Z,7.10
2019-04-05T21:02:04.835Z,7.20
2019-04-05T21:04:34.315Z,7.20
2019-04-05T21:07:03.805Z,7.20
2019-04-05T21:09:33.593Z,7.20
2019-04-05T21:12:03.072Z,7.30
2019-04-05T21:14:32.565Z,7.30
2019-04-05T21:17:03.640Z,7.30
2019-04-05T21:19:33.190Z,7.40
2019-04-05T21:22:02.650Z,7.40
2019-04-05T21:24:36.276Z,7.40
2019-04-05T21:27:03.845Z,7.40
2019-04-05T21:29:52.694Z,7.30
2019-04-05T21:32:22.172Z,7.30
2019-04-05T21:34:51.661Z,7.30
2019-04-05T21:37:40.445Z,7.40
2019-04-05T21:40:10.723Z,7.30
2019-04-05T21:42:40.197Z,7.30
2019-04-05T21:45:10.011Z,7.30
2019-04-05T21:47:39.478Z,7.40
2019-04-05T21:50:10.920Z,7.30
2019-04-05T21:52:40.431Z,7.30
2019-04-05T21:55:10.122Z,7.20
2019-04-05T21:57:58.971Z,7.30
2019-04-05T22:00:34.585Z,7.30
2019-04-05T22:03:04.143Z,7.30
2019-04-05T22:05:35.387Z,7.30
2019-04-05T22:08:04.907Z,7.20
2019-04-05T22:10:34.441Z,7.10
2019-04-05T22:13:04.556Z,7.10
2019-04-05T22:15:34.186Z,7.10
2019-04-05T22:18:04.108Z,7.10
2019-04-05T22:20:33.583Z,7.10
2019-04-05T22:23:03.040Z,7.10
2019-04-05T22:25:32.553Z,7.20
2019-04-05T22:28:02.030Z,7.20
2019-04-05T22:30:31.523Z,7.20
2019-04-05T22:33:01.053Z,7.10
2019-04-05T22:35:30.509Z,7.20
2019-04-05T22:38:00.010Z,7.20
2019-04-05T22:40:29.496Z,7.10
2019-04-05T22:42:58.954Z,7.10
2019-04-05T22:45:47.787Z,6.90
2019-04-05T22:48:17.268Z,6.80
2019-04-05T22:50:46.723Z,6.90
2019-04-05T22:53:16.243Z,6.90
2019-04-05T22:55:45.700Z,7.00
2019-04-05T22:58:15.161Z,7.00
2019-04-05T23:00:45.081Z,7.10
2019-04-05T23:03:15.674Z,7.10
2019-04-05T23:05:45.080Z,6.90
2019-04-05T23:08:14.606Z,6.90
2019-04-05T23:10:44.054Z,7.00
2019-04-05T23:13:13.538Z,7.00
2019-04-05T23:15:43.021Z,7.00
2019-04-05T23:18:12.494Z,7.00
2019-04-05T23:21:01.343Z,7.10
2019-04-05T23:23:30.836Z,7.10
2019-04-05T23:26:00.352Z,7.10
2019-04-05T23:28:29.789Z,7.10
2019-04-05T23:30:59.299Z,6.90
2019-04-05T23:33:28.745Z,6.70
2019-04-05T23:35:58.267Z,6.70
2019-04-05T23:38:27.765Z,6.70
2019-04-05T23:40:59.573Z,6.80
2019-04-05T23:43:28.463Z,6.90
2019-04-05T23:45:58.018Z,6.80
2019-04-05T23:48:27.502Z,6.70
2019-04-05T23:50:57.007Z,6.70
2019-04-05T23:53:26.500Z,6.70
2019-04-05T23:55:55.966Z,6.60
2019-04-05T23:58:25.919Z,6.70
